createdAt,value
2018-07-12T00:02:04.826Z,99837.00
2018-07-12T00:04:31.134Z,99844.00
2018-07-12T00:06:57.476Z,99844.00
2018-07-12T00:09:24.061Z,99842.00
2018-07-12T00:11:50.399Z,99845.00
2018-07-12T00:14:17.167Z,99852.00
2018-07-12T00:16:43.768Z,99847.00
2018-07-12T00:19:10.110Z,99843.00
2018-07-12T00:21:36.665Z,99835.00
2018-07-12T00:24:02.969Z,99836.00
2018-07-12T00:26:29.368Z,99839.00
2018-07-12T00:28:55.863Z,99844.00
2018-07-12T00:31:23.639Z,99847.00
2018-07-12T00:33:50.655Z,99850.00
2018-07-12T00:36:37.212Z,99850.00
2018-07-12T00:39:07.892Z,99849.00
2018-07-12T00:41:43.622Z,99845.00
2018-07-12T00:44:10.497Z,99836.00
2018-07-12T00:46:36.825Z,99832.00
2018-07-12T00:49:03.400Z,99829.00
2018-07-12T00:51:29.793Z,99832.00
2018-07-12T00:53:56.080Z,99835.00
2018-07-12T00:56:22.839Z,99836.00
2018-07-12T00:58:49.195Z,99843.00
2018-07-12T01:01:16.004Z,99845.00
2018-07-12T01:03:42.844Z,99846.00
2018-07-12T01:06:09.148Z,99845.00
2018-07-12T01:08:35.444Z,99844.00
2018-07-12T01:11:01.986Z,99841.00
2018-07-12T01:13:28.294Z,99838.00
2018-07-12T01:15:55.000Z,99844.00
2018-07-12T01:18:21.341Z,99845.00
2018-07-12T01:20:47.652Z,99848.00
2018-07-12T01:23:14.599Z,99843.00
2018-07-12T01:25:40.899Z,99845.00
2018-07-12T01:28:07.197Z,99846.00
2018-07-12T01:30:33.714Z,99843.00
2018-07-12T01:33:00.524Z,99849.00
2018-07-12T01:35:27.012Z,99851.00
2018-07-12T01:37:53.607Z,99850.00
2018-07-12T01:40:19.896Z,99856.00
2018-07-12T01:42:46.198Z,99859.00
2018-07-12T01:45:13.613Z,99861.00
2018-07-12T01:47:39.947Z,99857.00
2018-07-12T01:50:06.271Z,99853.00
2018-07-12T01:52:32.623Z,99841.00
2018-07-12T01:54:58.899Z,99848.00
2018-07-12T01:57:25.234Z,99845.00
2018-07-12T01:59:51.871Z,99842.00
2018-07-12T02:02:33.500Z,99841.00
2018-07-12T02:05:00.462Z,99837.00
2018-07-12T02:07:34.429Z,99837.00
2018-07-12T02:10:08.257Z,99832.00
2018-07-12T02:12:35.655Z,99831.00
2018-07-12T02:15:09.795Z,99832.00
2018-07-12T02:17:36.083Z,99834.00
2018-07-12T02:20:10.747Z,99842.00
2018-07-12T02:22:37.061Z,99844.00
2018-07-12T02:25:03.361Z,99841.00
2018-07-12T02:27:30.086Z,99838.00
2018-07-12T02:29:56.412Z,99836.00
2018-07-12T02:32:22.716Z,99830.00
2018-07-12T02:34:49.291Z,99829.00
2018-07-12T02:37:15.612Z,99825.00
2018-07-12T02:39:41.932Z,99826.00
2018-07-12T02:42:08.568Z,99833.00
2018-07-12T02:44:35.355Z,99835.00
2018-07-12T02:47:01.685Z,99841.00
2018-07-12T02:49:28.142Z,99844.00
2018-07-12T02:51:54.444Z,99843.00
2018-07-12T02:54:20.759Z,99845.00
2018-07-12T02:56:47.435Z,99842.00
2018-07-12T02:59:13.732Z,99844.00
2018-07-12T03:01:40.036Z,99842.00
2018-07-12T03:04:06.651Z,99842.00
2018-07-12T03:06:33.523Z,99844.00
2018-07-12T03:08:59.836Z,99849.00
2018-07-12T03:11:26.163Z,99848.00
2018-07-12T03:13:53.308Z,99850.00
2018-07-12T03:16:19.608Z,99853.00
2018-07-12T03:18:46.734Z,99848.00
2018-07-12T03:21:13.017Z,99847.00
2018-07-12T03:23:39.781Z,99845.00
2018-07-12T03:26:06.480Z,99839.00
2018-07-12T03:28:33.271Z,99838.00
2018-07-12T03:30:59.585Z,99840.00
2018-07-12T03:33:26.079Z,99843.00
2018-07-12T03:35:52.374Z,99844.00
2018-07-12T03:38:19.142Z,99842.00
2018-07-12T03:40:45.757Z,99844.00
2018-07-12T03:43:12.521Z,99841.00
2018-07-12T03:45:38.825Z,99835.00
2018-07-12T03:48:06.433Z,99832.00
2018-07-12T03:50:32.817Z,99834.00
2018-07-12T03:52:59.168Z,99837.00
2018-07-12T03:55:25.482Z,99842.00
2018-07-12T03:57:52.241Z,99841.00
2018-07-12T04:00:19.066Z,99846.00
2018-07-12T04:02:45.507Z,99848.00
2018-07-12T04:05:11.807Z,99854.00
2018-07-12T04:07:38.127Z,99861.00
2018-07-12T04:10:04.944Z,99858.00
2018-07-12T04:12:31.240Z,99857.00
2018-07-12T04:14:59.300Z,99858.00
2018-07-12T04:17:29.982Z,99847.00
2018-07-12T04:19:57.606Z,99839.00
2018-07-12T04:22:24.243Z,99837.00
2018-07-12T04:24:50.612Z,99827.00
2018-07-12T04:27:17.716Z,99826.00
2018-07-12T04:29:44.015Z,99817.00
2018-07-12T04:32:10.570Z,99818.00
2018-07-12T04:34:36.905Z,99817.00
2018-07-12T04:37:03.187Z,99813.00
2018-07-12T04:39:29.899Z,99811.00
2018-07-12T04:41:56.195Z,99809.00
2018-07-12T04:44:22.808Z,99815.00
2018-07-12T04:46:49.408Z,99818.00
2018-07-12T04:49:15.737Z,99819.00
2018-07-12T04:51:42.099Z,99811.00
2018-07-12T04:54:08.525Z,99810.00
2018-07-12T04:56:34.889Z,99808.00
2018-07-12T04:59:01.660Z,99806.00
2018-07-12T05:01:28.263Z,99803.00
2018-07-12T05:03:55.081Z,99804.00
2018-07-12T05:06:21.420Z,99805.00
2018-07-12T05:08:48.109Z,99807.00
2018-07-12T05:11:14.984Z,99810.00
2018-07-12T05:13:41.299Z,99821.00
2018-07-12T05:16:08.366Z,99823.00
2018-07-12T05:18:34.664Z,99819.00
2018-07-12T05:21:01.007Z,99827.00
2018-07-12T05:23:27.683Z,99823.00
2018-07-12T05:25:54.451Z,99821.00
2018-07-12T05:28:20.762Z,99820.00
2018-07-12T05:30:48.182Z,99818.00
2018-07-12T05:33:22.749Z,99824.00
2018-07-12T05:35:50.671Z,99825.00
2018-07-12T05:38:18.207Z,99822.00
2018-07-12T05:41:08.089Z,99825.00
2018-07-12T05:43:35.639Z,99827.00
2018-07-12T05:46:18.395Z,99827.00
2018-07-12T05:48:45.921Z,99825.00
2018-07-12T05:51:18.152Z,99825.00
2018-07-12T05:53:46.301Z,99823.00
2018-07-12T05:56:26.431Z,99819.00
2018-07-12T05:58:54.045Z,99824.00
2018-07-12T06:01:39.613Z,99828.00
2018-07-12T06:04:07.402Z,99828.00
2018-07-12T06:06:35.005Z,99823.00
2018-07-12T06:09:04.421Z,99818.00
2018-07-12T06:11:32.093Z,99819.00
2018-07-12T06:13:59.756Z,99819.00
2018-07-12T06:16:27.767Z,99828.00
2018-07-12T06:18:55.783Z,99829.00
2018-07-12T06:21:23.296Z,99823.00
2018-07-12T06:23:50.889Z,99820.00
2018-07-12T06:26:18.840Z,99823.00
2018-07-12T06:28:46.605Z,99821.00
2018-07-12T06:31:14.316Z,99824.00
2018-07-12T06:33:41.876Z,99822.00
2018-07-12T06:36:09.675Z,99818.00
2018-07-12T06:38:37.349Z,99820.00
2018-07-12T06:41:05.051Z,99822.00
2018-07-12T06:43:32.796Z,99825.00
2018-07-12T06:46:00.445Z,99824.00
2018-07-12T06:48:28.056Z,99825.00
2018-07-12T06:50:56.072Z,99831.00
2018-07-12T06:53:23.883Z,99828.00
2018-07-12T06:55:51.776Z,99829.00
2018-07-12T06:58:19.599Z,99829.00
2018-07-12T07:00:47.147Z,99833.00
2018-07-12T07:03:14.781Z,99830.00
2018-07-12T07:05:42.841Z,99830.00
2018-07-12T07:08:10.467Z,99820.00
2018-07-12T07:10:38.067Z,99823.00
2018-07-12T07:13:05.945Z,99815.00
2018-07-12T07:15:33.575Z,99817.00
2018-07-12T07:18:01.204Z,99810.00
2018-07-12T07:20:29.368Z,99812.00
2018-07-12T07:22:57.026Z,99813.00
2018-07-12T07:25:24.639Z,99814.00
2018-07-12T07:27:52.936Z,99813.00
2018-07-12T07:30:20.603Z,99819.00
2018-07-12T07:32:48.241Z,99816.00
2018-07-12T07:35:16.014Z,99819.00
2018-07-12T07:37:43.623Z,99810.00
2018-07-12T07:40:11.296Z,99815.00
2018-07-12T07:42:39.168Z,99811.00
2018-07-12T07:45:07.286Z,99815.00
2018-07-12T07:47:35.047Z,99814.00
2018-07-12T07:50:06.985Z,99814.00
2018-07-12T07:52:34.645Z,99816.00
2018-07-12T07:55:02.312Z,99817.00
2018-07-12T07:57:30.193Z,99819.00
2018-07-12T07:59:57.790Z,99816.00
2018-07-12T08:02:25.790Z,99820.00
2018-07-12T08:04:53.612Z,99822.00
2018-07-12T08:07:21.210Z,99821.00
2018-07-12T08:09:48.797Z,99820.00
2018-07-12T08:12:16.723Z,99818.00
2018-07-12T08:14:44.289Z,99823.00
2018-07-12T08:17:11.959Z,99821.00
2018-07-12T08:19:40.120Z,99830.00
2018-07-12T08:22:08.863Z,99822.00
2018-07-12T08:24:36.522Z,99819.00
2018-07-12T08:27:04.961Z,99821.00
2018-07-12T08:29:34.012Z,99823.00
2018-07-12T08:32:03.109Z,99818.00
2018-07-12T08:34:31.452Z,99806.00
2018-07-12T08:36:59.101Z,99809.00
2018-07-12T08:39:26.757Z,99801.00
2018-07-12T08:41:54.766Z,99804.00
2018-07-12T08:44:22.379Z,99796.00
2018-07-12T08:46:50.797Z,99796.00
2018-07-12T08:49:18.630Z,99792.00
2018-07-12T08:51:46.720Z,99786.00
2018-07-12T08:54:14.787Z,99783.00
2018-07-12T08:56:43.132Z,99777.00
2018-07-12T08:59:10.793Z,99770.00
2018-07-12T09:01:38.448Z,99776.00
2018-07-12T09:04:06.647Z,99772.00
2018-07-12T09:06:34.321Z,99779.00
2018-07-12T09:09:01.948Z,99777.00
2018-07-12T09:11:29.947Z,99770.00
2018-07-12T09:13:57.544Z,99760.00
2018-07-12T09:16:25.174Z,99766.00
2018-07-12T09:18:53.056Z,99759.00
2018-07-12T09:21:20.640Z,99753.00
2018-07-12T09:23:48.234Z,99749.00
2018-07-12T09:26:16.054Z,99753.00
2018-07-12T09:28:43.872Z,99758.00
2018-07-12T09:31:12.240Z,99752.00
2018-07-12T09:33:39.847Z,99749.00
2018-07-12T09:36:07.721Z,99743.00
2018-07-12T09:38:48.810Z,99747.00
2018-07-12T09:41:16.718Z,99757.00
2018-07-12T09:43:45.072Z,99757.00
2018-07-12T09:46:13.052Z,99768.00
2018-07-12T09:48:42.231Z,99754.00
2018-07-12T09:51:14.366Z,99749.00
2018-07-12T09:53:43.042Z,99737.00
2018-07-12T09:56:10.717Z,99738.00
2018-07-12T09:58:38.635Z,99735.00
2018-07-12T10:01:12.047Z,99718.00
2018-07-12T10:03:45.487Z,99705.00
2018-07-12T10:06:18.884Z,99724.00
2018-07-12T10:08:52.376Z,99711.00
2018-07-12T10:11:26.796Z,99724.00
2018-07-12T10:14:04.936Z,99727.00
2018-07-12T10:16:38.372Z,99728.00
2018-07-12T10:19:06.005Z,99732.00
2018-07-12T10:21:33.692Z,99726.00
2018-07-12T10:24:01.832Z,99726.00
2018-07-12T10:26:29.551Z,99728.00
2018-07-12T10:28:57.215Z,99731.00
2018-07-12T10:31:25.636Z,99741.00
2018-07-12T10:33:53.251Z,99735.00
2018-07-12T10:36:20.928Z,99738.00
2018-07-12T10:38:48.792Z,99725.00
2018-07-12T10:41:16.421Z,99732.00
2018-07-12T10:43:44.046Z,99725.00
2018-07-12T10:46:12.453Z,99728.00
2018-07-12T10:48:40.060Z,99719.00
2018-07-12T10:51:10.248Z,99722.00
2018-07-12T10:53:38.792Z,99727.00
2018-07-12T10:56:06.451Z,99725.00
2018-07-12T10:58:34.086Z,99722.00
2018-07-12T11:01:01.912Z,99719.00
2018-07-12T11:03:29.572Z,99719.00
2018-07-12T11:05:57.183Z,99724.00
2018-07-12T11:08:25.358Z,99725.00
2018-07-12T11:10:52.976Z,99729.00
2018-07-12T11:13:38.876Z,99729.00
2018-07-12T11:16:06.465Z,99717.00
2018-07-12T11:18:34.088Z,99725.00
2018-07-12T11:21:01.890Z,99723.00
2018-07-12T11:23:29.579Z,99718.00
2018-07-12T11:25:57.327Z,99724.00
2018-07-12T11:28:25.267Z,99720.00
2018-07-12T11:30:52.888Z,99717.00
2018-07-12T11:33:44.887Z,99717.00
2018-07-12T11:36:12.619Z,99728.00
2018-07-12T11:38:41.596Z,99723.00
2018-07-12T11:41:10.024Z,99728.00
2018-07-12T11:43:37.706Z,99725.00
2018-07-12T11:46:06.423Z,99706.00
2018-07-12T11:48:35.373Z,99723.00
2018-07-12T11:51:03.314Z,99725.00
2018-07-12T11:53:30.927Z,99728.00
2018-07-12T11:55:58.887Z,99738.00
2018-07-12T11:58:26.531Z,99712.00
2018-07-12T12:00:55.507Z,99735.00
2018-07-12T12:03:23.374Z,99745.00
2018-07-12T12:05:50.979Z,99743.00
2018-07-12T12:08:18.434Z,99743.00
2018-07-12T12:10:46.327Z,99754.00
2018-07-12T12:13:14.392Z,99757.00
2018-07-12T12:15:42.304Z,99759.00
2018-07-12T12:18:10.345Z,99757.00
2018-07-12T12:20:37.951Z,99754.00
2018-07-12T12:23:06.131Z,99761.00
2018-07-12T12:25:33.960Z,99759.00
2018-07-12T12:28:06.767Z,99755.00
2018-07-12T12:30:35.037Z,99765.00
2018-07-12T12:33:12.579Z,99768.00
2018-07-12T12:35:40.599Z,99771.00
2018-07-12T12:38:11.092Z,99773.00
2018-07-12T12:40:38.785Z,99773.00
2018-07-12T12:43:07.092Z,99778.00
2018-07-12T12:45:35.647Z,99779.00
2018-07-12T12:48:03.357Z,99785.00
2018-07-12T12:50:31.221Z,99787.00
2018-07-12T12:52:58.875Z,99795.00
2018-07-12T12:55:26.499Z,99795.00
2018-07-12T12:57:54.335Z,99807.00
2018-07-12T13:00:21.910Z,99805.00
2018-07-12T13:02:49.541Z,99810.00
2018-07-12T13:05:17.453Z,99805.00
2018-07-12T13:07:45.102Z,99809.00
2018-07-12T13:10:12.735Z,99806.00
2018-07-12T13:12:40.342Z,99818.00
2018-07-12T13:15:07.958Z,99819.00
2018-07-12T13:17:35.851Z,99820.00
2018-07-12T13:20:03.805Z,99824.00
2018-07-12T13:22:31.523Z,99820.00
2018-07-12T13:24:59.360Z,99816.00
2018-07-12T13:27:27.082Z,99819.00
2018-07-12T13:29:54.682Z,99821.00
2018-07-12T13:32:22.336Z,99818.00
2018-07-12T13:34:50.819Z,99819.00
2018-07-12T13:37:18.956Z,99822.00
2018-07-12T13:39:46.746Z,99820.00
2018-07-12T13:42:14.370Z,99821.00
2018-07-12T13:44:42.091Z,99827.00
2018-07-12T13:47:10.052Z,99828.00
2018-07-12T13:49:37.812Z,99830.00
2018-07-12T13:52:05.446Z,99833.00
2018-07-12T13:54:33.117Z,99833.00
2018-07-12T13:57:03.269Z,99834.00
2018-07-12T13:59:30.859Z,99834.00
2018-07-12T14:01:58.768Z,99836.00
2018-07-12T14:04:26.529Z,99841.00
2018-07-12T14:06:54.202Z,99838.00
2018-07-12T14:09:22.103Z,99839.00
2018-07-12T14:11:50.139Z,99839.00
2018-07-12T14:14:17.787Z,99830.00
2018-07-12T14:16:45.603Z,99831.00
2018-07-12T14:19:13.195Z,99829.00
2018-07-12T14:21:40.809Z,99823.00
2018-07-12T14:24:08.709Z,99824.00
2018-07-12T14:26:36.356Z,99828.00
2018-07-12T14:29:04.023Z,99821.00
2018-07-12T14:31:31.820Z,99827.00
2018-07-12T14:33:59.640Z,99829.00
2018-07-12T14:36:27.356Z,99820.00
2018-07-12T14:38:55.084Z,99823.00
2018-07-12T14:41:23.089Z,99826.00
2018-07-12T14:43:50.735Z,99831.00
2018-07-12T14:46:18.371Z,99818.00
2018-07-12T14:48:46.056Z,99829.00
2018-07-12T14:51:13.639Z,99831.00
2018-07-12T14:53:41.273Z,99834.00
2018-07-12T14:56:09.010Z,99840.00
2018-07-12T14:58:39.767Z,99842.00
2018-07-12T15:01:07.463Z,99843.00
2018-07-12T15:03:35.564Z,99843.00
2018-07-12T15:06:03.456Z,99847.00
2018-07-12T15:08:31.140Z,99848.00
2018-07-12T15:10:59.139Z,99848.00
2018-07-12T15:13:26.780Z,99852.00
2018-07-12T15:15:54.363Z,99854.00
2018-07-12T15:18:22.356Z,99853.00
2018-07-12T15:20:50.013Z,99851.00
2018-07-12T15:23:17.725Z,99846.00
2018-07-12T15:25:45.620Z,99853.00
2018-07-12T15:28:13.253Z,99855.00
2018-07-12T15:30:40.951Z,99850.00
2018-07-12T15:33:09.624Z,99855.00
2018-07-12T15:35:37.342Z,99862.00
2018-07-12T15:38:05.179Z,99861.00
2018-07-12T15:40:37.081Z,99858.00
2018-07-12T15:43:04.797Z,99857.00
2018-07-12T15:45:32.463Z,99856.00
2018-07-12T15:48:00.656Z,99862.00
2018-07-12T15:50:28.274Z,99853.00
2018-07-12T15:52:55.953Z,99857.00
2018-07-12T15:55:23.539Z,99855.00
2018-07-12T15:57:51.227Z,99858.00
2018-07-12T16:00:19.414Z,99855.00
2018-07-12T16:02:47.802Z,99864.00
2018-07-12T16:05:15.460Z,99863.00
2018-07-12T16:07:44.482Z,99866.00
2018-07-12T16:10:12.165Z,99862.00
2018-07-12T16:12:39.872Z,99862.00
2018-07-12T16:15:07.578Z,99862.00
2018-07-12T16:17:35.349Z,99859.00
2018-07-12T16:20:03.327Z,99866.00
2018-07-12T16:22:31.014Z,99860.00
2018-07-12T16:24:59.221Z,99866.00
2018-07-12T16:27:26.851Z,99862.00
2018-07-12T16:29:54.601Z,99864.00
2018-07-12T16:32:22.515Z,99867.00
2018-07-12T16:34:50.347Z,99867.00
2018-07-12T16:37:17.981Z,99869.00
2018-07-12T16:39:46.176Z,99865.00
2018-07-12T16:42:13.825Z,99866.00
2018-07-12T16:44:41.488Z,99863.00
2018-07-12T16:47:09.450Z,99861.00
2018-07-12T16:49:37.096Z,99861.00
2018-07-12T16:52:04.742Z,99859.00
2018-07-12T16:54:32.722Z,99859.00
2018-07-12T16:57:00.429Z,99855.00
2018-07-12T16:59:28.260Z,99852.00
2018-07-12T17:01:55.903Z,99851.00
2018-07-12T17:04:23.499Z,99847.00
2018-07-12T17:06:51.159Z,99848.00
2018-07-12T17:09:18.948Z,99849.00
2018-07-12T17:11:46.632Z,99850.00
2018-07-12T17:14:14.657Z,99854.00
2018-07-12T17:16:42.372Z,99849.00
2018-07-12T17:19:10.060Z,99852.00
2018-07-12T17:21:38.101Z,99856.00
2018-07-12T17:24:05.844Z,99854.00
2018-07-12T17:26:33.504Z,99857.00
2018-07-12T17:29:01.309Z,99856.00
2018-07-12T17:31:28.898Z,99852.00
2018-07-12T17:33:56.492Z,99857.00
2018-07-12T17:36:24.228Z,99860.00
2018-07-12T17:38:51.904Z,99851.00
2018-07-12T17:41:19.568Z,99861.00
2018-07-12T17:43:47.687Z,99857.00
2018-07-12T17:46:16.300Z,99858.00
2018-07-12T17:48:43.923Z,99857.00
2018-07-12T17:51:11.648Z,99857.00
2018-07-12T17:53:39.504Z,99856.00
2018-07-12T17:56:07.164Z,99857.00
2018-07-12T17:58:34.845Z,99863.00
2018-07-12T18:01:02.521Z,99861.00
2018-07-12T18:03:30.203Z,99860.00
2018-07-12T18:05:57.928Z,99859.00
2018-07-12T18:08:25.593Z,99856.00
2018-07-12T18:10:53.180Z,99857.00
2018-07-12T18:13:21.321Z,99857.00
2018-07-12T18:15:49.161Z,99860.00
2018-07-12T18:18:17.404Z,99855.00
2018-07-12T18:20:46.407Z,99856.00
2018-07-12T18:23:14.050Z,99856.00
2018-07-12T18:25:46.304Z,99856.00
2018-07-12T18:28:14.047Z,99858.00
2018-07-12T18:30:41.662Z,99862.00
2018-07-12T18:33:09.847Z,99860.00
2018-07-12T18:35:37.542Z,99865.00
2018-07-12T18:38:05.139Z,99871.00
2018-07-12T18:40:32.826Z,99874.00
2018-07-12T18:43:00.536Z,99872.00
2018-07-12T18:45:28.204Z,99870.00
2018-07-12T18:47:56.150Z,99873.00
2018-07-12T18:50:23.878Z,99875.00
2018-07-12T18:52:51.579Z,99883.00
2018-07-12T18:55:19.592Z,99888.00
2018-07-12T18:57:47.253Z,99892.00
2018-07-12T19:00:14.896Z,99894.00
2018-07-12T19:02:43.226Z,99898.00
2018-07-12T19:05:11.726Z,99900.00
2018-07-12T19:07:39.433Z,99903.00
2018-07-12T19:10:07.470Z,99901.00
2018-07-12T19:12:35.176Z,99904.00
2018-07-12T19:15:02.817Z,99909.00
2018-07-12T19:17:30.953Z,99904.00
2018-07-12T19:19:58.671Z,99910.00
2018-07-12T19:22:25.938Z,99914.00
2018-07-12T19:24:54.041Z,99920.00
2018-07-12T19:27:21.664Z,99920.00
2018-07-12T19:29:49.298Z,99941.00
2018-07-12T19:32:17.229Z,99948.00
2018-07-12T19:34:45.075Z,99958.00
2018-07-12T19:37:12.618Z,99956.00
2018-07-12T19:39:40.283Z,99954.00
2018-07-12T19:42:07.923Z,99950.00
2018-07-12T19:44:35.702Z,99953.00
2018-07-12T19:47:03.413Z,99951.00
2018-07-12T19:49:31.076Z,99949.00
2018-07-12T19:51:58.861Z,99952.00
2018-07-12T19:54:28.264Z,99953.00
2018-07-12T19:56:56.786Z,99963.00
2018-07-12T19:59:24.624Z,99960.00
2018-07-12T20:01:52.329Z,99965.00
2018-07-12T20:04:19.956Z,99960.00
2018-07-12T20:06:47.936Z,99962.00
2018-07-12T20:09:15.944Z,99960.00
2018-07-12T20:11:43.587Z,99960.00
2018-07-12T20:14:11.548Z,99959.00
2018-07-12T20:16:39.311Z,99962.00
2018-07-12T20:19:08.280Z,99961.00
2018-07-12T20:21:36.198Z,99956.00
2018-07-12T20:24:03.901Z,99961.00
2018-07-12T20:26:31.603Z,99957.00
2018-07-12T20:28:59.495Z,99957.00
2018-07-12T20:31:27.108Z,99958.00
2018-07-12T20:33:54.801Z,99965.00
2018-07-12T20:36:25.342Z,99961.00
2018-07-12T20:38:58.907Z,99960.00
2018-07-12T20:41:26.895Z,99966.00
2018-07-12T20:43:54.536Z,99970.00
2018-07-12T20:46:22.160Z,99973.00
2018-07-12T20:48:49.955Z,99973.00
2018-07-12T20:51:17.700Z,99969.00
2018-07-12T20:53:45.321Z,99967.00
2018-07-12T20:56:12.931Z,99966.00
2018-07-12T20:58:40.916Z,99967.00
2018-07-12T21:01:08.549Z,99972.00
2018-07-12T21:03:36.221Z,99968.00
2018-07-12T21:06:04.143Z,99966.00
2018-07-12T21:08:31.804Z,99970.00
2018-07-12T21:11:04.018Z,99973.00
2018-07-12T21:13:31.900Z,99969.00
2018-07-12T21:15:59.501Z,99964.00
2018-07-12T21:18:27.382Z,99968.00
2018-07-12T21:20:55.048Z,99967.00
2018-07-12T21:23:22.482Z,99963.00
2018-07-12T21:25:50.253Z,99963.00
2018-07-12T21:28:17.892Z,99965.00
2018-07-12T21:30:45.499Z,99963.00
2018-07-12T21:33:13.354Z,99959.00
2018-07-12T21:35:40.908Z,99961.00
2018-07-12T21:38:08.501Z,99959.00
2018-07-12T21:40:36.571Z,99953.00
2018-07-12T21:43:04.459Z,99954.00
2018-07-12T21:45:32.120Z,99951.00
2018-07-12T21:48:00.101Z,99952.00
2018-07-12T21:50:27.870Z,99955.00
2018-07-12T21:52:55.463Z,99955.00
2018-07-12T21:55:23.098Z,99954.00
2018-07-12T21:57:50.874Z,99954.00
2018-07-12T22:00:18.551Z,99956.00
2018-07-12T22:02:46.474Z,99958.00
2018-07-12T22:05:14.032Z,99952.00
2018-07-12T22:08:21.747Z,99942.00
2018-07-12T22:10:52.455Z,99950.00
2018-07-12T22:13:20.960Z,99948.00
2018-07-12T22:15:49.082Z,99950.00
2018-07-12T22:18:16.764Z,99952.00
2018-07-12T22:20:44.439Z,99954.00
2018-07-12T22:23:12.338Z,99950.00
2018-07-12T22:25:40.099Z,99959.00
2018-07-12T22:28:07.802Z,99956.00
2018-07-12T22:30:35.908Z,99952.00
2018-07-12T22:33:03.991Z,99966.00
2018-07-12T22:35:31.591Z,99966.00
2018-07-12T22:38:00.466Z,99972.00
2018-07-12T22:40:28.447Z,99976.00
2018-07-12T22:42:56.231Z,99978.00
2018-07-12T22:45:24.542Z,99983.00
2018-07-12T22:47:52.173Z,99984.00
2018-07-12T22:50:19.824Z,99984.00
2018-07-12T22:52:47.937Z,99981.00
2018-07-12T22:55:16.379Z,99985.00
2018-07-12T22:57:44.073Z,99979.00
2018-07-12T23:00:11.816Z,99984.00
2018-07-12T23:02:39.592Z,99980.00
2018-07-12T23:05:07.292Z,99980.00
2018-07-12T23:07:35.135Z,99977.00
2018-07-12T23:10:02.816Z,99980.00
2018-07-12T23:12:30.427Z,99975.00
2018-07-12T23:14:58.294Z,99978.00
2018-07-12T23:17:25.908Z,99978.00
2018-07-12T23:19:53.528Z,99975.00
2018-07-12T23:22:22.048Z,99976.00
2018-07-12T23:24:49.768Z,99980.00
2018-07-12T23:27:17.500Z,99979.00
2018-07-12T23:29:45.864Z,99979.00
2018-07-12T23:32:13.565Z,99980.00
2018-07-12T23:34:41.633Z,99976.00
2018-07-12T23:37:09.540Z,99974.00
2018-07-12T23:39:37.455Z,99975.00
2018-07-12T23:42:05.184Z,99975.00
2018-07-12T23:44:32.977Z,99973.00
2018-07-12T23:47:00.616Z,99973.00
2018-07-12T23:49:28.615Z,99966.00
2018-07-12T23:51:56.406Z,99964.00
2018-07-12T23:54:24.083Z,99961.00
2018-07-12T23:56:52.325Z,99970.00
2018-07-12T23:59:19.997Z,99973.00
